Terminal Aerodrome Forecast
Issued by NWS

Home | Current Version | Previous Version | Text Only | Print | Product List | Glossary On
Versions: 1 2 3 4 5 6 7 8 9 10 11 12 13 14 15 16 17 18 19 20 21 22 23 24 25 26 27 28 29 30 31 32 33 34 35 36 37 38 39 40
000
FTUS43 KPAH 012320
TAFOWB
TAF
KOWB 012320Z 0200/0224 04007KT P6SM OVC017
      TEMPO 0202/0205 OVC025
     FM020700 01003KT 3SM BR OVC005
     FM021400 03006KT P6SM BKN025
     FM022200 04006KT P6SM SCT035=

USA.gov is the U.S. government's official web portal to all federal, state and local government web resources and services.